Playa del Carmen, Mexico

2:08 PM CDT on August 20, 2014 (GMT -0500)
Hacienda Monte Cristo | Change Station
CLOSE
Current Station
Personal Weather Station
Location: Cozumel, QR
Elevation: 60 ft
Nearby Weather Stations

Elev 60 ft 20.55 °N, 86.92 °W | Updated 4 minutes ago

Scattered Clouds
Scattered Clouds
87.1 °F
Feels Like 105 °F
N
17.0
Wind Variable Wind from NE
Gusts 21.0 mph

Today
High -- | Low -- °F
--% Chance of Precip.
Yesterday
High -- | Low -- °F
Precip. -- in
6:28 AM 7:13 PM
Waning Crescent, 20% visible
Pressure 30.04 in
Visibility 7.0 miles
Clouds Scattered Clouds 1500 ft
Heat Index 105 °F
Dew Point 81 °F
Humidity 83%
Rainfall 0.00 in
Snow Depth Not available.
UV 13 out of 12
Pollen Not available.
Air Quality Not available.
Flu Activity Not available.
METAR MMUN 201844Z 10007G17KT 7SM SCT015 33/23 A3004 RMK 8/100 MDT CU

More Conditions Fewer Conditions

Pressure 30.04 in
Visibility 7.0 miles
Clouds Scattered Clouds 1500 ft
Heat Index 105 °F
Dew Point 81 °F
Humidity 83%
Rainfall 0.00 in
Snow Depth Not available.
UV 13 out of 12
Pollen Not available.
Air Quality Not available.
Flu Activity Not available.
METAR MMUN 201844Z 10007G17KT 7SM SCT015 33/23 A3004 RMK 8/100 MDT CU

More Conditions Fewer Conditions

10-Day Weather Forecast

Almanac

Astronomy

Aug. 20, 2014 Rise Set
Actual Time 6:28 AM CDT 7:13 PM CDT
Civil Twilight 6:05 AM CDT 7:36 PM CDT
Nautical Twilight 5:39 AM CDT 8:03 PM CDT
Astronomical Twilight 5:11 AM CDT 8:30 PM CDT
Moon 2:21 AM CDT 3:45 PM CDT
Length of Visible Light 13h 30m
Length of Day
12h 44m
Tomorrow will be 1m 5s shorter.
Waning Crescent, 20% of the Moon is Illuminated
Today
Waning Crescent
Aug 25
New
Sep 2
First Quarter
Sep 8
Full
Sep 15
Last Quarter

Today's Extremes

Country Highs Country Lows

Community

WunderPhotos

Upload Photos

1,745,718 photos uploaded!

WunderBlogs® & News

By Dr. Jeff Masters
Director of Meteorology, Weather Underground
By Kari Strenfel
Meteorologist, Weather Underground
By Christopher C. Burt
Weather Historian, Weather Underground
August 20, 2014
August 20, 2014
August 20, 2014

Nearby

Snow Depth

Not available.

Earthquake Activity

City Distance Mag. Time & Date
No recent earthquake activity has been reported nearby.
Minimum magnitude displayed is 2.5.

Coastal Water Temperatures

Place Temperature
No Stations Reporting

Nearby Weather Stations